Terminal Aerodrome Forecast
Issued by NWS Shreveport, LA

Home | Current Version | Previous Version | Text Only | Print | Product List | Glossary On
Versions: 1 2 3 4 5 6 7 8 9 10 11 12 13 14 15 16 17 18 19 20 21 22 23 24 25
000
FTUS44 KSHV 261323 AAB
TAFSHV
TAF AMD
KSHV 261323Z 2613/2712 22003KT 5SM BR SKC
      TEMPO 2613/2614 1/2SM FG OVC003
     FM261500 20007KT P6SM FEW010 SCT030
     FM270000 12008KT P6SM SCT050 BKN120
     FM270900 06017KT P6SM VCSH OVC025=

USA.gov is the U.S. government's official web portal to all federal, state and local government web resources and services.